sensor_id;sensor_type;location;lat;lon;timestamp;noise_LAeq;noise_LA_min;noise_LA_max;noise_LA01;noise_LA95
42701;Laerm;28316;49.504;8.526;2023-01-09T00:00:20;37.44;32.35;39.34;;
42701;Laerm;28316;49.504;8.526;2023-01-09T00:02:46;37.53;32.35;40.13;;
42701;Laerm;28316;49.504;8.526;2023-01-09T00:05:14;37.19;29.92;39.46;;
42701;Laerm;28316;49.504;8.526;2023-01-09T00:07:40;37.04;28.67;39.21;;
42701;Laerm;28316;49.504;8.526;2023-01-09T00:10:08;37.10;30.89;39.58;;
42701;Laerm;28316;49.504;8.526;2023-01-09T00:12:34;37.29;30.89;39.46;;
42701;Laerm;28316;49.504;8.526;2023-01-09T00:15:00;37.52;29.92;39.58;;
42701;Laerm;28316;49.504;8.526;2023-01-09T00:17:26;46.67;33.44;82.27;;
42701;Laerm;28316;49.504;8.526;2023-01-09T00:19:52;37.63;31.68;39.46;;
42701;Laerm;28316;49.504;8.526;2023-01-09T00:22:19;37.62;32.93;39.35;;
42701;Laerm;28316;49.504;8.526;2023-01-09T00:24:44;37.63;28.67;39.58;;
42701;Laerm;28316;49.504;8.526;2023-01-09T00:27:10;37.62;32.35;39.46;;
42701;Laerm;28316;49.504;8.526;2023-01-09T00:29:40;37.66;32.93;39.58;;
42701;Laerm;28316;49.504;8.526;2023-01-09T00:32:10;37.75;32.35;39.46;;
42701;Laerm;28316;49.504;8.526;2023-01-09T00:34:39;37.82;30.89;39.58;;
42701;Laerm;28316;49.504;8.526;2023-01-09T00:37:07;37.94;33.44;39.70;;
42701;Laerm;28316;49.504;8.526;2023-01-09T00:39:40;37.96;34.31;39.81;;
42701;Laerm;28316;49.504;8.526;2023-01-09T00:42:09;38.02;32.93;39.70;;
42701;Laerm;28316;49.504;8.526;2023-01-09T00:44:46;38.06;32.93;39.81;;
42701;Laerm;28316;49.504;8.526;2023-01-09T00:47:24;38.07;32.35;39.92;;
42701;Laerm;28316;49.504;8.526;2023-01-09T00:49:52;38.02;34.69;39.70;;
42701;Laerm;28316;49.504;8.526;2023-01-09T00:52:19;38.07;34.31;40.03;;
42701;Laerm;28316;49.504;8.526;2023-01-09T00:54:45;38.09;34.69;39.81;;
42701;Laerm;28316;49.504;8.526;2023-01-09T00:57:12;38.26;36.10;39.81;;
42701;Laerm;28316;49.504;8.526;2023-01-09T00:59:40;38.26;34.69;39.81;;
42701;Laerm;28316;49.504;8.526;2023-01-09T01:02:06;38.27;35.86;39.92;;
42701;Laerm;28316;49.504;8.526;2023-01-09T01:04:32;38.26;34.31;40.23;;
42701;Laerm;28316;49.504;8.526;2023-01-09T01:07:16;38.11;33.90;39.78;;
42701;Laerm;28316;49.504;8.526;2023-01-09T01:10:00;37.76;32.93;39.70;;
42701;Laerm;28316;49.504;8.526;2023-01-09T01:12:26;37.41;30.89;39.70;;
42701;Laerm;28316;49.504;8.526;2023-01-09T01:14:52;37.12;28.67;39.46;;
42701;Laerm;28316;49.504;8.526;2023-01-09T01:17:18;37.17;30.89;39.46;;
42701;Laerm;28316;49.504;8.526;2023-01-09T01:19:44;37.24;31.68;39.58;;
42701;Laerm;28316;49.504;8.526;2023-01-09T01:22:10;37.18;30.54;39.46;;
42701;Laerm;28316;49.504;8.526;2023-01-09T01:24:35;37.17;30.89;39.70;;
42701;Laerm;28316;49.504;8.526;2023-01-09T01:27:01;37.17;30.89;39.34;;
42701;Laerm;28316;49.504;8.526;2023-01-09T01:29:27;36.88;30.54;39.34;;
42701;Laerm;28316;49.504;8.526;2023-01-09T01:31:53;36.73;26.91;39.34;;
42701;Laerm;28316;49.504;8.526;2023-01-09T01:34:19;36.62;29.92;39.46;;
42701;Laerm;28316;49.504;8.526;2023-01-09T01:36:44;36.45;29.92;39.46;;
42701;Laerm;28316;49.504;8.526;2023-01-09T01:39:10;36.35;30.89;42.88;;
42701;Laerm;28316;49.504;8.526;2023-01-09T01:41:37;36.15;29.92;38.95;;
42701;Laerm;28316;49.504;8.526;2023-01-09T01:47:09;36.31;28.67;39.11;;
42701;Laerm;28316;49.504;8.526;2023-01-09T01:49:35;36.31;28.67;38.95;;
42701;Laerm;28316;49.504;8.526;2023-01-09T01:52:01;36.31;28.67;39.46;;
42701;Laerm;28316;49.504;8.526;2023-01-09T01:54:29;36.27;28.67;39.08;;
42701;Laerm;28316;49.504;8.526;2023-01-09T01:57:01;36.16;28.32;39.21;;
42701;Laerm;28316;49.504;8.526;2023-01-09T01:59:48;36.01;26.91;39.21;;
42701;Laerm;28316;49.504;8.526;2023-01-09T02:02:24;35.95;26.91;39.21;;
42701;Laerm;28316;49.504;8.526;2023-01-09T02:04:52;35.95;23.90;39.21;;
42701;Laerm;28316;49.504;8.526;2023-01-09T02:07:19;35.95;26.91;39.34;;
42701;Laerm;28316;49.504;8.526;2023-01-09T02:09:45;35.90;28.67;39.34;;
42701;Laerm;28316;49.504;8.526;2023-01-09T02:12:29;35.96;28.32;42.59;;
42701;Laerm;28316;49.504;8.526;2023-01-09T02:15:04;35.89;28.67;38.87;;
42701;Laerm;28316;49.504;8.526;2023-01-09T02:20:37;35.89;26.91;39.08;;
42701;Laerm;28316;49.504;8.526;2023-01-09T02:29:09;35.81;26.91;39.46;;
42701;Laerm;28316;49.504;8.526;2023-01-09T02:32:05;35.83;28.67;38.95;;
42701;Laerm;28316;49.504;8.526;2023-01-09T02:37:37;35.84;23.90;39.34;;
42701;Laerm;28316;49.504;8.526;2023-01-09T02:43:09;35.90;26.91;39.08;;
42701;Laerm;28316;49.504;8.526;2023-01-09T02:45:36;35.86;28.32;38.95;;
42701;Laerm;28316;49.504;8.526;2023-01-09T02:48:02;35.83;23.90;39.08;;
42701;Laerm;28316;49.504;8.526;2023-01-09T02:50:54;35.88;23.90;39.46;;
42701;Laerm;28316;49.504;8.526;2023-01-09T02:53:40;35.89;28.67;38.67;;
42701;Laerm;28316;49.504;8.526;2023-01-09T02:59:17;35.92;28.67;39.08;;
42701;Laerm;28316;49.504;8.526;2023-01-09T03:05:08;35.94;26.91;39.92;;
42701;Laerm;28316;49.504;8.526;2023-01-09T03:07:55;36.05;28.67;39.34;;
42701;Laerm;28316;49.504;8.526;2023-01-09T03:10:49;36.16;28.67;39.46;;
42701;Laerm;28316;49.504;8.526;2023-01-09T03:13:20;36.16;26.91;39.08;;
42701;Laerm;28316;49.504;8.526;2023-01-09T03:15:50;36.20;29.92;39.21;;
42701;Laerm;28316;49.504;8.526;2023-01-09T03:18:21;36.28;29.92;39.70;;
42701;Laerm;28316;49.504;8.526;2023-01-09T03:20:49;36.33;30.89;39.21;;
42701;Laerm;28316;49.504;8.526;2023-01-09T03:23:15;36.41;30.89;38.95;;
42701;Laerm;28316;49.504;8.526;2023-01-09T03:25:41;36.56;30.89;39.34;;
42701;Laerm;28316;49.504;8.526;2023-01-09T03:28:20;36.77;32.35;39.34;;
42701;Laerm;28316;49.504;8.526;2023-01-09T03:30:49;37.12;32.93;40.03;;
42701;Laerm;28316;49.504;8.526;2023-01-09T03:33:14;37.49;34.31;39.92;;
42701;Laerm;28316;49.504;8.526;2023-01-09T03:35:40;37.94;35.04;40.43;;
42701;Laerm;28316;49.504;8.526;2023-01-09T03:38:06;38.19;35.66;40.33;;
42701;Laerm;28316;49.504;8.526;2023-01-09T03:40:32;38.52;35.66;40.71;;
42701;Laerm;28316;49.504;8.526;2023-01-09T03:42:57;38.64;36.20;40.53;;
42701;Laerm;28316;49.504;8.526;2023-01-09T03:45:23;38.70;36.45;40.53;;
42701;Laerm;28316;49.504;8.526;2023-01-09T03:47:49;38.78;36.20;40.80;;
42701;Laerm;28316;49.504;8.526;2023-01-09T03:50:14;38.81;35.94;40.89;;
42701;Laerm;28316;49.504;8.526;2023-01-09T03:52:40;38.77;36.20;40.54;;
42701;Laerm;28316;49.504;8.526;2023-01-09T03:55:06;38.67;36.69;40.53;;
42701;Laerm;28316;49.504;8.526;2023-01-09T03:57:33;38.72;36.45;40.89;;
42701;Laerm;28316;49.504;8.526;2023-01-09T03:59:58;38.65;36.20;40.53;;
42701;Laerm;28316;49.504;8.526;2023-01-09T04:02:24;38.56;36.20;40.43;;
42701;Laerm;28316;49.504;8.526;2023-01-09T04:04:50;38.71;36.20;40.89;;
42701;Laerm;28316;49.504;8.526;2023-01-09T04:07:15;38.84;36.69;40.89;;
42701;Laerm;28316;49.504;8.526;2023-01-09T04:09:41;39.15;36.91;41.14;;
42701;Laerm;28316;49.504;8.526;2023-01-09T04:12:07;39.83;37.52;41.30;;
42701;Laerm;28316;49.504;8.526;2023-01-09T04:14:32;39.85;38.18;41.46;;
42701;Laerm;28316;49.504;8.526;2023-01-09T04:16:58;40.07;38.37;41.53;;
42701;Laerm;28316;49.504;8.526;2023-01-09T04:19:24;40.46;38.67;41.89;;
42701;Laerm;28316;49.504;8.526;2023-01-09T04:21:49;40.67;39.21;41.96;;
42701;Laerm;28316;49.504;8.526;2023-01-09T04:24:15;40.93;39.34;42.35;;
42701;Laerm;28316;49.504;8.526;2023-01-09T04:26:41;41.17;39.46;44.35;;
42701;Laerm;28316;49.504;8.526;2023-01-09T04:29:07;41.28;40.03;43.86;;
42701;Laerm;28316;49.504;8.526;2023-01-09T04:31:32;41.42;39.92;47.59;;
42701;Laerm;28316;49.504;8.526;2023-01-09T04:33:58;41.75;40.33;56.48;;
42701;Laerm;28316;49.504;8.526;2023-01-09T04:36:24;41.63;40.23;47.88;;
42701;Laerm;28316;49.504;8.526;2023-01-09T04:38:49;41.62;40.13;47.44;;
42701;Laerm;28316;49.504;8.526;2023-01-09T04:41:15;41.49;40.08;43.04;;
42701;Laerm;28316;49.504;8.526;2023-01-09T04:44:01;41.52;40.03;42.98;;
42701;Laerm;28316;49.504;8.526;2023-01-09T04:46:26;41.62;40.23;51.53;;
42701;Laerm;28316;49.504;8.526;2023-01-09T04:48:52;41.44;40.13;42.71;;
42701;Laerm;28316;49.504;8.526;2023-01-09T04:51:18;41.45;39.92;42.76;;
42701;Laerm;28316;49.504;8.526;2023-01-09T04:53:43;41.43;39.81;42.93;;
42701;Laerm;28316;49.504;8.526;2023-01-09T04:56:10;41.43;40.13;42.65;;
42701;Laerm;28316;49.504;8.526;2023-01-09T04:58:35;41.36;40.13;42.59;;
42701;Laerm;28316;49.504;8.526;2023-01-09T05:01:01;41.42;40.13;43.24;;
42701;Laerm;28316;49.504;8.526;2023-01-09T05:03:27;41.39;40.03;42.47;;
42701;Laerm;28316;49.504;8.526;2023-01-09T05:05:52;41.49;40.13;46.15;;
42701;Laerm;28316;49.504;8.526;2023-01-09T05:08:18;41.54;40.23;43.39;;
42701;Laerm;28316;49.504;8.526;2023-01-09T05:10:44;41.60;39.81;44.15;;
42701;Laerm;28316;49.504;8.526;2023-01-09T05:13:09;41.64;39.81;44.27;;
42701;Laerm;28316;49.504;8.526;2023-01-09T05:15:35;41.68;40.23;42.82;;
42701;Laerm;28316;49.504;8.526;2023-01-09T05:18:01;41.68;40.33;44.90;;
42701;Laerm;28316;49.504;8.526;2023-01-09T05:20:27;41.85;40.13;46.87;;
42701;Laerm;28316;49.504;8.526;2023-01-09T05:22:52;41.81;40.23;45.39;;
42701;Laerm;28316;49.504;8.526;2023-01-09T05:25:18;41.83;40.33;44.65;;
42701;Laerm;28316;49.504;8.526;2023-01-09T05:27:44;41.94;40.36;49.50;;
42701;Laerm;28316;49.504;8.526;2023-01-09T05:30:12;41.92;40.62;48.43;;
42701;Laerm;28316;49.504;8.526;2023-01-09T05:32:38;41.89;40.43;47.12;;
42701;Laerm;28316;49.504;8.526;2023-01-09T05:35:04;41.78;40.23;43.04;;
42701;Laerm;28316;49.504;8.526;2023-01-09T05:37:30;41.68;40.23;42.88;;
42701;Laerm;28316;49.504;8.526;2023-01-09T05:39:56;41.58;39.92;46.95;;
42701;Laerm;28316;49.504;8.526;2023-01-09T05:42:21;41.51;40.13;42.65;;
42701;Laerm;28316;49.504;8.526;2023-01-09T05:44:47;41.40;39.92;42.76;;
42701;Laerm;28316;49.504;8.526;2023-01-09T05:47:13;41.28;39.81;42.47;;
42701;Laerm;28316;49.504;8.526;2023-01-09T05:49:38;41.19;39.70;42.41;;
42701;Laerm;28316;49.504;8.526;2023-01-09T05:52:04;41.14;39.34;42.47;;
42701;Laerm;28316;49.504;8.526;2023-01-09T05:54:30;41.10;39.70;42.41;;
42701;Laerm;28316;49.504;8.526;2023-01-09T05:56:56;41.33;39.92;42.58;;
42701;Laerm;28316;49.504;8.526;2023-01-09T05:59:22;41.56;40.33;42.93;;
42701;Laerm;28316;49.504;8.526;2023-01-09T06:01:47;41.70;40.23;44.03;;
42701;Laerm;28316;49.504;8.526;2023-01-09T06:04:13;41.73;40.03;42.88;;
42701;Laerm;28316;49.504;8.526;2023-01-09T06:06:39;41.81;40.62;43.09;;
42701;Laerm;28316;49.504;8.526;2023-01-09T06:09:05;41.80;40.23;42.98;;
42701;Laerm;28316;49.504;8.526;2023-01-09T06:11:31;41.83;40.43;43.33;;
42701;Laerm;28316;49.504;8.526;2023-01-09T06:14:00;42.10;40.53;50.20;;
42701;Laerm;28316;49.504;8.526;2023-01-09T06:16:26;42.01;40.71;45.07;;
42701;Laerm;28316;49.504;8.526;2023-01-09T06:18:52;41.89;40.53;43.39;;
42701;Laerm;28316;49.504;8.526;2023-01-09T06:21:18;41.84;40.33;43.09;;
42701;Laerm;28316;49.504;8.526;2023-01-09T06:23:43;41.84;40.63;43.44;;
42701;Laerm;28316;49.504;8.526;2023-01-09T06:26:09;41.91;40.53;48.29;;
42701;Laerm;28316;49.504;8.526;2023-01-09T06:28:35;41.79;40.33;42.88;;
42701;Laerm;28316;49.504;8.526;2023-01-09T06:31:01;41.79;40.43;44.19;;
42701;Laerm;28316;49.504;8.526;2023-01-09T06:33:26;41.77;40.23;42.93;;
42701;Laerm;28316;49.504;8.526;2023-01-09T06:35:52;41.74;40.43;42.93;;
42701;Laerm;28316;49.504;8.526;2023-01-09T06:38:18;41.78;40.23;44.11;;
42701;Laerm;28316;49.504;8.526;2023-01-09T06:40:43;41.75;40.43;43.29;;
42701;Laerm;28316;49.504;8.526;2023-01-09T06:43:09;41.76;40.23;45.42;;
42701;Laerm;28316;49.504;8.526;2023-01-09T06:45:35;41.71;40.33;43.04;;
42701;Laerm;28316;49.504;8.526;2023-01-09T06:48:01;41.70;40.43;43.90;;
42701;Laerm;28316;49.504;8.526;2023-01-09T06:50:27;41.72;40.03;46.52;;
42701;Laerm;28316;49.504;8.526;2023-01-09T06:52:52;41.67;40.03;45.33;;
42701;Laerm;28316;49.504;8.526;2023-01-09T06:55:18;41.63;40.23;43.19;;
42701;Laerm;28316;49.504;8.526;2023-01-09T06:57:44;41.61;40.27;43.19;;
42701;Laerm;28316;49.504;8.526;2023-01-09T07:00:10;41.61;40.13;46.79;;
42701;Laerm;28316;49.504;8.526;2023-01-09T07:02:36;41.57;40.13;43.54;;
42701;Laerm;28316;49.504;8.526;2023-01-09T07:05:02;41.60;39.81;47.04;;
42701;Laerm;28316;49.504;8.526;2023-01-09T07:07:28;41.55;39.92;45.63;;
42701;Laerm;28316;49.504;8.526;2023-01-09T07:09:54;41.50;39.92;42.65;;
42701;Laerm;28316;49.504;8.526;2023-01-09T07:12:19;41.47;40.13;43.34;;
42701;Laerm;28316;49.504;8.526;2023-01-09T07:14:45;41.45;40.03;44.51;;
42701;Laerm;28316;49.504;8.526;2023-01-09T07:17:12;41.52;39.81;47.46;;
42701;Laerm;28316;49.504;8.526;2023-01-09T07:19:40;41.44;40.13;44.31;;
42701;Laerm;28316;49.504;8.526;2023-01-09T07:22:06;41.46;39.92;43.99;;
42701;Laerm;28316;49.504;8.526;2023-01-09T07:24:32;41.42;39.99;44.65;;
42701;Laerm;28316;49.504;8.526;2023-01-09T07:26:58;41.47;39.21;50.24;;
42701;Laerm;28316;49.504;8.526;2023-01-09T07:29:23;41.60;40.13;52.50;;
42701;Laerm;28316;49.504;8.526;2023-01-09T07:31:49;41.64;40.08;47.70;;
42701;Laerm;28316;49.504;8.526;2023-01-09T07:34:15;41.45;39.81;42.93;;
42701;Laerm;28316;49.504;8.526;2023-01-09T07:36:40;41.54;39.81;45.99;;
42701;Laerm;28316;49.504;8.526;2023-01-09T07:39:06;41.48;39.81;42.65;;
42701;Laerm;28316;49.504;8.526;2023-01-09T07:41:33;41.48;39.81;44.69;;
42701;Laerm;28316;49.504;8.526;2023-01-09T07:43:59;41.55;40.13;49.02;;
42701;Laerm;28316;49.504;8.526;2023-01-09T07:46:24;41.50;40.13;46.13;;
42701;Laerm;28316;49.504;8.526;2023-01-09T07:48:50;41.64;40.03;48.87;;
42701;Laerm;28316;49.504;8.526;2023-01-09T07:51:16;41.64;39.92;49.71;;
42701;Laerm;28316;49.504;8.526;2023-01-09T07:53:41;41.38;39.81;44.43;;
42701;Laerm;28316;49.504;8.526;2023-01-09T07:56:07;41.57;39.92;58.05;;
42701;Laerm;28316;49.504;8.526;2023-01-09T07:58:33;41.36;39.70;49.82;;
42701;Laerm;28316;49.504;8.526;2023-01-09T08:00:58;41.17;39.46;47.28;;
42701;Laerm;28316;49.504;8.526;2023-01-09T08:03:24;40.98;39.21;44.15;;
42701;Laerm;28316;49.504;8.526;2023-01-09T08:05:51;41.06;39.21;44.90;;
42701;Laerm;28316;49.504;8.526;2023-01-09T08:08:17;41.12;39.46;45.27;;
42701;Laerm;28316;49.504;8.526;2023-01-09T08:10:42;41.27;39.81;49.90;;
42701;Laerm;28316;49.504;8.526;2023-01-09T08:13:08;41.22;39.70;43.54;;
42701;Laerm;28316;49.504;8.526;2023-01-09T08:15:34;41.61;39.70;53.07;;
42701;Laerm;28316;49.504;8.526;2023-01-09T08:18:00;41.50;39.34;53.25;;
42701;Laerm;28316;49.504;8.526;2023-01-09T08:20:26;41.32;39.81;49.88;;
42701;Laerm;28316;49.504;8.526;2023-01-09T08:22:52;41.27;39.81;46.76;;
42701;Laerm;28316;49.504;8.526;2023-01-09T08:25:19;41.26;39.70;44.35;;
42701;Laerm;28316;49.504;8.526;2023-01-09T08:27:45;41.40;39.58;46.33;;
42701;Laerm;28316;49.504;8.526;2023-01-09T08:30:12;41.48;40.03;49.41;;
42701;Laerm;28316;49.504;8.526;2023-01-09T08:32:38;41.44;40.03;45.30;;
42701;Laerm;28316;49.504;8.526;2023-01-09T08:35:05;41.43;39.81;44.73;;
42701;Laerm;28316;49.504;8.526;2023-01-09T08:37:31;41.68;40.18;48.98;;
42701;Laerm;28316;49.504;8.526;2023-01-09T08:39:56;41.66;40.23;46.71;;
42701;Laerm;28316;49.504;8.526;2023-01-09T08:42:22;41.73;40.23;47.54;;
42701;Laerm;28316;49.504;8.526;2023-01-09T08:45:09;41.52;40.13;42.71;;
42701;Laerm;28316;49.504;8.526;2023-01-09T08:47:53;41.54;40.13;44.65;;
42701;Laerm;28316;49.504;8.526;2023-01-09T08:50:19;41.55;40.13;43.29;;
42701;Laerm;28316;49.504;8.526;2023-01-09T08:52:45;41.54;39.81;42.82;;
42701;Laerm;28316;49.504;8.526;2023-01-09T08:55:11;40.19;35.66;42.71;;
42701;Laerm;28316;49.504;8.526;2023-01-09T08:57:37;39.66;34.69;41.89;;
42701;Laerm;28316;49.504;8.526;2023-01-09T09:00:03;41.08;39.34;42.88;;
42701;Laerm;28316;49.504;8.526;2023-01-09T09:02:29;41.30;39.92;45.17;;
42701;Laerm;28316;49.504;8.526;2023-01-09T09:04:54;41.31;39.70;42.85;;
42701;Laerm;28316;49.504;8.526;2023-01-09T09:07:21;41.39;40.03;46.07;;
42701;Laerm;28316;49.504;8.526;2023-01-09T09:09:54;41.39;39.92;42.98;;
42701;Laerm;28316;49.504;8.526;2023-01-09T09:12:20;41.40;40.03;42.53;;
42701;Laerm;28316;49.504;8.526;2023-01-09T09:14:46;41.46;40.03;45.69;;
42701;Laerm;28316;49.504;8.526;2023-01-09T09:17:30;41.48;39.92;43.04;;
42701;Laerm;28316;49.504;8.526;2023-01-09T09:19:58;41.55;40.03;44.31;;
42701;Laerm;28316;49.504;8.526;2023-01-09T09:22:25;41.55;39.81;44.19;;
42701;Laerm;28316;49.504;8.526;2023-01-09T09:24:50;41.60;40.13;49.41;;
42701;Laerm;28316;49.504;8.526;2023-01-09T09:27:16;41.54;40.33;42.76;;
42701;Laerm;28316;49.504;8.526;2023-01-09T09:29:42;41.58;40.23;43.49;;
42701;Laerm;28316;49.504;8.526;2023-01-09T09:32:08;41.88;40.33;54.93;;
42701;Laerm;28316;49.504;8.526;2023-01-09T09:34:34;41.69;40.23;46.30;;
42701;Laerm;28316;49.504;8.526;2023-01-09T09:36:59;41.76;40.13;51.95;;
42701;Laerm;28316;49.504;8.526;2023-01-09T09:39:25;41.72;40.13;45.83;;
42701;Laerm;28316;49.504;8.526;2023-01-09T09:42:20;41.63;40.33;43.34;;
42701;Laerm;28316;49.504;8.526;2023-01-09T09:48:34;41.61;40.23;42.98;;
42701;Laerm;28316;49.504;8.526;2023-01-09T09:53:59;41.78;40.23;48.85;;
42701;Laerm;28316;49.504;8.526;2023-01-09T09:56:30;41.61;40.23;43.24;;
42701;Laerm;28316;49.504;8.526;2023-01-09T09:59:18;41.61;40.33;42.82;;
42701;Laerm;28316;49.504;8.526;2023-01-09T10:02:02;41.65;39.99;44.58;;
42701;Laerm;28316;49.504;8.526;2023-01-09T10:04:31;41.62;40.13;43.09;;
42701;Laerm;28316;49.504;8.526;2023-01-09T10:07:14;41.64;40.23;45.30;;
42701;Laerm;28316;49.504;8.526;2023-01-09T10:09:53;41.71;40.43;47.83;;
42701;Laerm;28316;49.504;8.526;2023-01-09T10:15:06;41.66;40.13;44.23;;
42701;Laerm;28316;49.504;8.526;2023-01-09T10:18:15;41.93;40.33;50.63;;
42701;Laerm;28316;49.504;8.526;2023-01-09T10:21:09;41.71;40.13;47.93;;
42701;Laerm;28316;49.504;8.526;2023-01-09T10:23:48;41.76;40.23;45.99;;
42701;Laerm;28316;49.504;8.526;2023-01-09T10:26:34;41.73;40.13;44.03;;
42701;Laerm;28316;49.504;8.526;2023-01-09T10:29:08;41.68;40.23;48.16;;
42701;Laerm;28316;49.504;8.526;2023-01-09T10:31:51;41.90;40.43;48.39;;
42701;Laerm;28316;49.504;8.526;2023-01-09T10:37:33;41.87;40.33;44.97;;
42701;Laerm;28316;49.504;8.526;2023-01-09T10:40:13;41.83;40.62;45.04;;
42701;Laerm;28316;49.504;8.526;2023-01-09T10:42:48;41.82;40.43;50.76;;
42701;Laerm;28316;49.504;8.526;2023-01-09T10:45:30;41.96;40.23;54.54;;
42701;Laerm;28316;49.504;8.526;2023-01-09T10:48:10;41.59;39.46;43.04;;
42701;Laerm;28316;49.504;8.526;2023-01-09T10:50:40;41.48;39.81;50.95;;
42701;Laerm;28316;49.504;8.526;2023-01-09T10:53:25;39.80;36.91;45.20;;
42701;Laerm;28316;49.504;8.526;2023-01-09T10:55:59;37.76;33.90;40.13;;
42701;Laerm;28316;49.504;8.526;2023-01-09T10:58:26;37.14;33.90;39.70;;
42701;Laerm;28316;49.504;8.526;2023-01-09T11:00:53;36.91;32.93;39.46;;
42701;Laerm;28316;49.504;8.526;2023-01-09T11:03:22;55.69;32.93;91.92;;
42701;Laerm;28316;49.504;8.526;2023-01-09T11:05:53;36.81;31.68;39.70;;
42701;Laerm;28316;49.504;8.526;2023-01-09T11:08:37;37.55;34.31;40.13;;
42701;Laerm;28316;49.504;8.526;2023-01-09T11:11:06;39.66;36.45;41.61;;
42701;Laerm;28316;49.504;8.526;2023-01-09T11:13:35;40.66;38.67;41.96;;
42701;Laerm;28316;49.504;8.526;2023-01-09T11:16:16;41.00;39.34;44.65;;
42701;Laerm;28316;49.504;8.526;2023-01-09T11:18:55;41.10;39.81;42.41;;
42701;Laerm;28316;49.504;8.526;2023-01-09T11:21:39;41.12;39.70;42.41;;
42701;Laerm;28316;49.504;8.526;2023-01-09T11:29:42;39.28;35.36;42.03;;
42701;Laerm;28316;49.504;8.526;2023-01-09T11:32:22;37.51;34.31;40.08;;
42701;Laerm;28316;49.504;8.526;2023-01-09T11:34:48;38.85;35.36;42.09;;
42701;Laerm;28316;49.504;8.526;2023-01-09T11:37:28;38.68;35.04;41.14;;
42701;Laerm;28316;49.504;8.526;2023-01-09T11:39:57;37.31;34.31;39.81;;
42701;Laerm;28316;49.504;8.526;2023-01-09T11:42:28;37.00;32.35;39.46;;
42701;Laerm;28316;49.504;8.526;2023-01-09T11:45:17;53.99;31.68;90.72;;
42701;Laerm;28316;49.504;8.526;2023-01-09T11:47:44;36.75;32.93;48.03;;
42701;Laerm;28316;49.504;8.526;2023-01-09T11:50:23;36.72;31.68;39.34;;
42701;Laerm;28316;49.504;8.526;2023-01-09T11:53:16;36.68;32.35;39.34;;
42701;Laerm;28316;49.504;8.526;2023-01-09T11:55:45;36.89;32.35;39.46;;
42701;Laerm;28316;49.504;8.526;2023-01-09T11:58:19;37.70;34.31;40.18;;
42701;Laerm;28316;49.504;8.526;2023-01-09T12:13:28;40.38;38.37;42.71;;
42701;Laerm;28316;49.504;8.526;2023-01-09T12:22:53;40.61;39.08;41.82;;
42701;Laerm;28316;49.504;8.526;2023-01-09T12:31:32;40.68;38.81;42.65;;
42701;Laerm;28316;49.504;8.526;2023-01-09T12:40:35;40.27;38.21;41.75;;
42701;Laerm;28316;49.504;8.526;2023-01-09T12:43:10;40.63;38.95;41.82;;
42701;Laerm;28316;49.504;8.526;2023-01-09T12:46:19;40.83;38.95;42.09;;
42701;Laerm;28316;49.504;8.526;2023-01-09T12:51:47;40.64;38.05;42.09;;
42701;Laerm;28316;49.504;8.526;2023-01-09T12:57:01;37.14;32.93;39.89;;
42701;Laerm;28316;49.504;8.526;2023-01-09T12:59:40;36.93;32.93;39.46;;
42701;Laerm;28316;49.504;8.526;2023-01-09T13:02:44;53.57;32.35;90.33;;
42701;Laerm;28316;49.504;8.526;2023-01-09T13:05:54;36.74;32.93;39.46;;
42701;Laerm;28316;49.504;8.526;2023-01-09T13:10:55;36.65;32.35;46.91;;
42701;Laerm;28316;49.504;8.526;2023-01-09T13:13:23;36.59;31.68;39.58;;
42701;Laerm;28316;49.504;8.526;2023-01-09T13:15:59;36.59;30.89;39.34;;
42701;Laerm;28316;49.504;8.526;2023-01-09T13:18:36;37.25;32.93;40.13;;
42701;Laerm;28316;49.504;8.526;2023-01-09T13:21:07;39.74;35.86;41.82;;
42701;Laerm;28316;49.504;8.526;2023-01-09T13:24:01;41.41;39.58;52.61;;
42701;Laerm;28316;49.504;8.526;2023-01-09T13:26:37;41.72;40.13;47.38;;
42701;Laerm;28316;49.504;8.526;2023-01-09T13:29:27;41.78;40.53;49.58;;
42701;Laerm;28316;49.504;8.526;2023-01-09T13:34:40;42.06;40.71;43.44;;
42701;Laerm;28316;49.504;8.526;2023-01-09T13:37:37;42.29;40.43;47.28;;
42701;Laerm;28316;49.504;8.526;2023-01-09T13:40:26;42.11;40.71;43.34;;
42701;Laerm;28316;49.504;8.526;2023-01-09T13:43:04;42.07;40.63;43.68;;
42701;Laerm;28316;49.504;8.526;2023-01-09T13:45:35;42.05;40.43;50.04;;
42701;Laerm;28316;49.504;8.526;2023-01-09T13:50:45;42.09;40.62;47.00;;
42701;Laerm;28316;49.504;8.526;2023-01-09T14:07:14;41.88;40.43;43.14;;
42701;Laerm;28316;49.504;8.526;2023-01-09T14:09:51;41.88;40.33;44.47;;
42701;Laerm;28316;49.504;8.526;2023-01-09T14:12:21;41.85;40.53;43.04;;
42701;Laerm;28316;49.504;8.526;2023-01-09T14:14:48;41.85;40.33;42.98;;
42701;Laerm;28316;49.504;8.526;2023-01-09T14:17:26;41.85;40.03;45.25;;
42701;Laerm;28316;49.504;8.526;2023-01-09T14:20:07;41.76;40.33;43.34;;
42701;Laerm;28316;49.504;8.526;2023-01-09T14:22:47;41.74;40.33;46.18;;
42701;Laerm;28316;49.504;8.526;2023-01-09T14:25:24;41.81;40.33;47.04;;
42701;Laerm;28316;49.504;8.526;2023-01-09T14:35:36;41.81;40.43;43.94;;
42701;Laerm;28316;49.504;8.526;2023-01-09T14:38:33;41.84;40.53;45.20;;
42701;Laerm;28316;49.504;8.526;2023-01-09T14:41:03;41.85;40.23;44.39;;
42701;Laerm;28316;49.504;8.526;2023-01-09T14:46:14;41.79;40.23;43.24;;
42701;Laerm;28316;49.504;8.526;2023-01-09T14:49:08;41.78;40.43;44.90;;
42701;Laerm;28316;49.504;8.526;2023-01-09T14:51:44;41.73;40.33;43.90;;
42701;Laerm;28316;49.504;8.526;2023-01-09T14:54:26;41.70;39.92;43.34;;
42701;Laerm;28316;49.504;8.526;2023-01-09T14:56:53;41.75;40.23;42.98;;
42701;Laerm;28316;49.504;8.526;2023-01-09T14:59:19;41.72;40.43;42.95;;
42701;Laerm;28316;49.504;8.526;2023-01-09T15:01:47;41.13;36.45;63.23;;
42701;Laerm;28316;49.504;8.526;2023-01-09T15:04:33;37.59;34.69;43.19;;
42701;Laerm;28316;49.504;8.526;2023-01-09T15:07:03;39.55;34.69;42.22;;
42701;Laerm;28316;49.504;8.526;2023-01-09T15:09:46;41.47;40.03;42.82;;
42701;Laerm;28316;49.504;8.526;2023-01-09T15:12:20;41.65;40.43;43.14;;
42701;Laerm;28316;49.504;8.526;2023-01-09T15:14:52;41.69;40.43;44.90;;
42701;Laerm;28316;49.504;8.526;2023-01-09T15:17:28;41.68;40.23;42.93;;
42701;Laerm;28316;49.504;8.526;2023-01-09T15:19:57;41.70;40.13;45.36;;
42701;Laerm;28316;49.504;8.526;2023-01-09T15:22:28;41.71;40.43;47.22;;
42701;Laerm;28316;49.504;8.526;2023-01-09T15:24:55;41.71;40.23;42.82;;
42701;Laerm;28316;49.504;8.526;2023-01-09T15:27:22;41.70;40.33;42.88;;
42701;Laerm;28316;49.504;8.526;2023-01-09T15:29:50;41.70;40.33;43.54;;
42701;Laerm;28316;49.504;8.526;2023-01-09T15:32:24;41.69;40.13;43.05;;
42701;Laerm;28316;49.504;8.526;2023-01-09T15:34:54;41.69;40.23;42.71;;
42701;Laerm;28316;49.504;8.526;2023-01-09T15:37:30;41.70;40.13;43.90;;
42701;Laerm;28316;49.504;8.526;2023-01-09T15:39:59;41.72;40.23;44.27;;
42701;Laerm;28316;49.504;8.526;2023-01-09T15:42:33;41.70;40.03;42.82;;
42701;Laerm;28316;49.504;8.526;2023-01-09T15:45:41;41.72;40.33;45.86;;
42701;Laerm;28316;49.504;8.526;2023-01-09T15:48:28;41.77;40.03;47.83;;
42701;Laerm;28316;49.504;8.526;2023-01-09T15:51:09;41.72;40.33;44.15;;
42701;Laerm;28316;49.504;8.526;2023-01-09T15:53:39;41.68;40.33;42.93;;
42701;Laerm;28316;49.504;8.526;2023-01-09T15:56:20;41.69;40.03;48.12;;